Time;durP1;ratioP1;P1;durP2;ratioP2;P2;SDS_P1;SDS_P2;PMS_P1;PMS_P2;Temp;Humidity;BMP_temperature;BMP_pressure;BME280_temperature;BME280_humidity;BME280_pressure;Samples;Min_cycle;Max_cycle;Signal;HPM_P1;HPM_P2
2022/05/03 00:05:07;;;;;;;10.37;8.20;;;11.10;59.10;;;;;;2616939;39;20801;-81
2022/05/03 00:18:03;;;;;;;9.00;8.10;;;10.90;67.50;;;;;;2617937;54;20439;-81
2022/05/03 00:24:10;;;;;;;8.33;7.50;;;10.80;69.70;;;;;;2618349;54;20540;-81
2022/05/03 00:30:18;;;;;;;8.70;7.90;;;10.60;80.80;;;;;;2618064;54;20624;-80
2022/05/03 00:58:30;;;;;;;8.70;7.20;;;10.20;95.10;;;;;;2616293;54;20407;-82
2022/05/03 01:08:07;;;;;;;10.23;8.40;;;10.00;98.30;;;;;;2616611;39;20800;-81
2022/05/03 01:18:08;;;;;;;8.07;7.20;;;9.90;99.90;;;;;;2616630;39;20925;-81
2022/05/03 01:31:07;;;;;;;11.43;7.40;;;9.60;99.90;;;;;;2617676;54;20985;-80
2022/05/03 01:44:36;;;;;;;10.43;8.57;;;9.50;99.90;;;;;;2616955;54;20398;-80
2022/05/03 02:09:04;;;;;;;10.17;8.80;;;9.20;99.90;;;;;;2616744;47;20386;-79
2022/05/03 02:14:54;;;;;;;12.10;9.10;;;8.90;99.90;;;;;;2616807;54;21273;-80
2022/05/03 02:25:01;;;;;;;11.80;9.03;;;9.00;99.90;;;;;;2616570;54;21053;-81
2022/05/03 02:31:13;;;;;;;12.07;9.67;;;9.00;99.90;;;;;;2616855;54;20439;-79
2022/05/03 02:34:06;;;;;;;11.10;8.60;;;8.90;99.90;;;;;;2618019;31;20904;-79
2022/05/03 02:40:02;;;;;;;9.80;8.90;;;8.80;99.90;;;;;;2618107;54;20402;-80
2022/05/03 03:17:47;;;;;;;11.07;9.03;;;8.30;99.90;;;;;;2616433;54;20394;-81
2022/05/03 03:27:19;;;;;;;11.90;9.87;;;8.00;99.90;;;;;;2616488;47;20889;-81
2022/05/03 03:37:07;;;;;;;10.87;9.70;;;7.90;99.90;;;;;;2616447;54;20410;-81
2022/05/03 03:46:35;;;;;;;9.33;8.03;;;7.90;99.90;;;;;;2616437;54;20431;-80
2022/05/03 03:52:46;;;;;;;11.77;9.80;;;8.00;99.90;;;;;;2617742;54;20148;-81
2022/05/03 03:58:53;;;;;;;10.23;9.17;;;7.80;99.90;;;;;;2617852;54;20431;-80
2022/05/03 04:05:02;;;;;;;12.30;9.27;;;7.70;99.90;;;;;;2617707;54;21056;-80
2022/05/03 04:11:16;;;;;;;13.17;9.70;;;7.70;99.90;;;;;;2618332;39;20772;-81
2022/05/03 04:17:23;;;;;;;9.37;8.47;;;7.60;99.90;;;;;;2617540;54;20419;-80
2022/05/03 04:23:30;;;;;;;12.23;11.00;;;7.70;99.90;;;;;;2617663;54;20415;-80
2022/05/03 04:29:36;;;;;;;12.73;9.97;;;7.70;99.90;;;;;;2617915;54;20681;-82
2022/05/03 04:35:43;;;;;;;14.20;10.43;;;7.70;99.90;;;;;;2617692;54;20398;-80
2022/05/03 04:41:50;;;;;;;12.13;10.37;;;7.60;99.90;;;;;;2617575;54;20282;-81
2022/05/03 04:51:38;;;;;;;14.83;11.27;;;7.90;99.90;;;;;;2616216;47;20425;-80
2022/05/03 04:57:26;;;;;;;13.07;9.90;;;7.90;99.90;;;;;;2615956;47;20181;-81
2022/05/03 05:03:14;;;;;;;12.83;10.97;;;8.30;99.90;;;;;;2616209;47;20382;-80
2022/05/03 05:09:01;;;;;;;12.30;10.70;;;8.30;99.90;;;;;;2616277;54;20510;-81
2022/05/03 05:14:49;;;;;;;16.13;10.10;;;8.40;99.90;;;;;;2616122;47;20535;-80
2022/05/03 05:20:36;;;;;;;17.30;10.10;;;8.80;99.90;;;;;;2617000;47;20400;-79
2022/05/03 05:26:25;;;;;;;12.47;10.47;;;9.10;99.90;;;;;;2617883;54;20395;-79
2022/05/03 05:32:13;;;;;;;12.30;10.47;;;9.50;99.90;;;;;;2617836;54;20663;-79
2022/05/03 05:38:02;;;;;;;9.93;8.80;;;10.10;99.90;;;;;;2617086;47;20471;-79
2022/05/03 05:47:31;;;;;;;8.40;6.93;;;11.00;89.90;;;;;;2617624;54;20415;-77
2022/05/03 05:59:44;;;;;;;13.67;10.93;;;11.40;65.60;;;;;;2617610;54;20479;-79
2022/05/03 06:02:41;;;;;;;10.37;8.00;;;11.60;61.50;;;;;;2616953;54;20386;-79
2022/05/03 06:19:29;;;;;;;8.40;7.00;;;12.80;41.30;;;;;;2615979;47;20962;-80
2022/05/03 06:25:17;;;;;;;8.33;6.90;;;13.00;38.30;;;;;;2616155;54;20523;-80
2022/05/03 06:31:04;;;;;;;8.37;7.57;;;13.50;36.90;;;;;;2616962;39;20759;-81
2022/05/03 06:36:53;;;;;;;8.10;7.40;;;14.00;27.90;;;;;;2616988;47;20245;-80
2022/05/03 06:42:41;;;;;;;7.13;6.53;;;14.20;25.50;;;;;;2616850;47;20147;-79
2022/05/03 06:45:09;;;;;;;10.37;6.73;;;14.30;24.60;;;;;;2617458;39;20869;-79
2022/05/03 06:47:36;;;;;;;9.73;8.73;;;14.30;22.50;;;;;;2617295;47;20387;-80
2022/05/03 06:53:25;;;;;;;7.30;6.60;;;14.60;15.40;;;;;;2618505;54;20407;-80
2022/05/03 07:10:03;;;;;;;9.33;6.73;;;15.90;1.00;;;;;;2617049;54;20526;-79
2022/05/03 07:16:10;;;;;;;6.17;5.57;;;16.40;1.00;;;;;;2617064;46;20423;-80
2022/05/03 07:25:19;;;;;;;7.80;6.20;;;16.60;1.00;;;;;;2617105;46;20935;-81
2022/05/03 07:31:08;;;;;;;7.00;6.40;;;16.80;1.00;;;;;;2616868;54;20145;-80
2022/05/03 07:36:56;;;;;;;5.97;5.47;;;17.20;1.00;;;;;;2616852;47;20404;-80
2022/05/03 07:46:24;;;;;;;6.20;5.70;;;18.00;1.00;;;;;;2618060;54;20441;-82
2022/05/03 07:52:36;;;;;;;5.27;4.87;;;18.40;1.00;;;;;;2618303;54;20418;-84
2022/05/03 07:58:24;;;;;;;8.00;5.23;;;18.50;1.00;;;;;;2617664;46;20406;-81
2022/05/03 08:04:12;;;;;;;4.87;3.90;;;18.50;1.00;;;;;;2617632;47;20237;-79
2022/05/03 08:20:51;;;;;;;3.93;3.63;;;18.60;1.00;;;;;;2617011;54;20404;-80
2022/05/03 08:30:19;;;;;;;3.80;3.50;;;19.30;1.00;;;;;;2616775;54;20922;-81
2022/05/03 08:36:06;;;;;;;3.73;3.30;;;19.40;1.00;;;;;;2616719;47;20232;-78
2022/05/03 08:42:15;;;;;;;3.80;3.47;;;19.90;1.00;;;;;;2617460;39;20650;-79
2022/05/03 08:52:16;;;;;;;4.70;4.17;;;20.50;1.00;;;;;;2617056;39;20769;-79
2022/05/03 08:58:23;;;;;;;5.20;4.13;;;20.30;1.00;;;;;;2616716;54;20414;-78
2022/05/03 09:32:41;;;;;;;5.50;4.90;;;20.90;1.00;;;;;;2616417;54;20402;-79
2022/05/03 09:42:15;;;;;;;5.10;4.70;;;21.30;1.00;;;;;;2616232;47;20399;-79
2022/05/03 10:02:53;;;;;;;5.90;5.17;;;22.20;1.00;;;;;;2616197;47;20495;-78
2022/05/03 10:08:41;;;;;;;4.60;4.30;;;22.00;1.00;;;;;;2617114;54;20414;-78
2022/05/03 10:14:28;;;;;;;4.50;4.20;;;22.00;1.00;;;;;;2617054;47;20410;-77
2022/05/03 10:24:04;;;;;;;4.53;4.23;;;22.00;1.00;;;;;;2617122;54;20413;-79
2022/05/03 10:30:21;;;;;;;5.20;4.70;;;22.20;1.00;;;;;;2617481;54;20459;-77
2022/05/03 10:36:31;;;;;;;4.50;4.20;;;22.40;1.00;;;;;;2618500;54;20410;-78
2022/05/03 10:43:05;;;;;;;5.60;5.20;;;22.70;1.00;;;;;;2617337;54;20378;-77
2022/05/03 10:49:15;;;;;;;5.60;5.10;;;22.50;1.00;;;;;;2617181;54;20450;-79
2022/05/03 11:17:18;;;;;;;5.67;4.90;;;23.50;1.00;;;;;;2616910;54;20435;-78
2022/05/03 11:23:34;;;;;;;5.83;5.33;;;23.10;1.00;;;;;;2617123;54;20430;-77
2022/05/03 11:29:43;;;;;;;6.83;6.17;;;22.50;1.00;;;;;;2617013;39;20497;-77
2022/05/03 11:35:49;;;;;;;6.13;5.73;;;22.00;1.00;;;;;;2616877;54;20513;-78
2022/05/03 11:41:56;;;;;;;7.33;6.73;;;23.20;1.00;;;;;;2616950;54;20409;-78
2022/05/03 12:06:44;;;;;;;7.10;6.60;;;23.90;1.00;;;;;;2616833;54;20402;-79
2022/05/03 12:13:10;;;;;;;6.57;5.97;;;23.30;1.00;;;;;;2617148;54;20418;-80
2022/05/03 12:22:38;;;;;;;7.07;6.57;;;23.20;1.00;;;;;;2616674;54;20463;-80
2022/05/03 13:00:06;;;;;;;8.17;7.47;;;22.90;1.00;;;;;;2616338;54;20463;-78
2022/05/03 13:06:12;;;;;;;7.20;6.47;;;23.20;1.00;;;;;;2616584;39;20473;-79
2022/05/03 13:26:37;;;;;;;7.93;7.37;;;23.00;1.00;;;;;;2616522;54;20443;-78
2022/05/03 13:32:44;;;;;;;9.07;8.23;;;22.90;1.00;;;;;;2616732;54;20407;-78
2022/05/03 13:45:16;;;;;;;6.60;6.10;;;23.00;1.00;;;;;;2617349;54;20400;-79
2022/05/03 13:51:23;;;;;;;6.00;5.50;;;24.20;1.00;;;;;;2617221;54;20418;-78
2022/05/03 13:57:33;;;;;;;5.93;5.53;;;24.10;1.00;;;;;;2618494;54;20432;-77
2022/05/03 14:03:41;;;;;;;7.53;7.03;;;24.30;1.00;;;;;;2618648;54;20402;-78
2022/05/03 14:09:47;;;;;;;7.70;7.20;;;23.80;1.00;;;;;;2618636;54;20391;-79
2022/05/03 14:15:54;;;;;;;7.30;6.70;;;23.60;1.00;;;;;;2618588;54;20146;-79
2022/05/03 14:22:02;;;;;;;6.00;5.60;;;24.30;1.00;;;;;;2618497;54;20166;-78
2022/05/03 14:28:08;;;;;;;6.13;5.60;;;23.50;1.00;;;;;;2618671;54;20414;-79
2022/05/03 14:36:58;;;;;;;7.27;6.80;;;23.80;1.00;;;;;;2676161;36;20472;-76
2022/05/03 14:39:24;;;;;;;7.00;6.50;;;23.60;1.00;;;;;;2610516;54;20451;-76
2022/05/03 14:45:12;;;;;;;6.80;6.20;;;23.40;1.00;;;;;;2612841;46;20447;-77
2022/05/03 14:51:00;;;;;;;7.50;6.80;;;22.20;1.00;;;;;;2610287;47;20458;-76
2022/05/03 15:03:13;;;;;;;6.43;5.93;;;22.70;1.00;;;;;;2611626;54;20427;-75
2022/05/03 15:09:03;;;;;;;6.50;6.00;;;23.20;1.00;;;;;;2610658;46;20758;-75
2022/05/03 15:14:51;;;;;;;6.20;5.67;;;23.00;1.00;;;;;;2612298;54;21005;-75
2022/05/03 15:20:40;;;;;;;52.37;44.60;;;22.40;1.00;;;;;;2610124;47;20711;-75
2022/05/03 15:26:47;;;;;;;35.60;32.07;;;20.90;1.00;;;;;;2611743;54;20157;-76
2022/05/03 15:32:36;;;;;;;96.07;85.67;;;20.30;1.00;;;;;;2613487;39;20567;-76
2022/05/03 15:42:25;;;;;;;7.47;6.87;;;20.30;1.00;;;;;;2615566;54;20430;-74
2022/05/03 15:48:13;;;;;;;6.67;6.17;;;20.70;1.00;;;;;;2617084;39;20799;-75
2022/05/03 15:54:02;;;;;;;9.23;8.47;;;21.50;1.00;;;;;;2612376;47;20186;-75
2022/05/03 15:59:50;;;;;;;72.50;64.83;;;22.00;1.00;;;;;;2613900;54;20522;-74
2022/05/03 16:05:38;;;;;;;6.00;5.57;;;21.80;1.00;;;;;;2615122;51;20436;-75
2022/05/03 16:11:26;;;;;;;6.60;6.10;;;21.50;1.00;;;;;;2615535;47;20431;-75
2022/05/03 16:14:29;;;;;;;6.93;6.40;;;21.70;1.00;;;;;;2614697;47;20564;-75
2022/05/03 16:16:56;;;;;;;11.03;9.83;;;21.70;1.00;;;;;;2612195;54;20738;-75
2022/05/03 16:51:08;;;;;;;7.27;6.40;;;20.30;1.00;;;;;;2615083;54;20406;-76
2022/05/03 16:57:15;;;;;;;8.60;6.80;;;20.30;1.00;;;;;;2614836;54;21146;-77
2022/05/03 17:06:46;;;;;;;11.13;8.10;;;19.50;1.00;;;;;;2613161;47;20411;-76
2022/05/03 17:12:37;;;;;;;8.27;7.57;;;18.80;1.00;;;;;;2613183;47;20430;-79
2022/05/03 17:18:25;;;;;;;9.30;8.13;;;18.10;1.00;;;;;;2614254;54;21016;-76
2022/05/03 17:24:13;;;;;;;16.13;7.00;;;17.90;1.00;;;;;;2612468;54;20164;-76
2022/05/03 17:30:01;;;;;;;8.77;7.67;;;17.80;1.00;;;;;;2615656;54;20520;-77
2022/05/03 17:35:50;;;;;;;9.40;8.40;;;17.60;1.00;;;;;;2615840;39;20527;-76
2022/05/03 17:45:19;;;;;;;11.10;8.90;;;17.50;1.00;;;;;;2615190;54;20429;-75
2022/05/03 17:53:52;;;;;;;9.40;8.43;;;17.30;1.00;;;;;;2616098;54;20429;-75
2022/05/03 17:57:53;;;;;;;11.03;9.13;;;17.20;3.80;;;;;;2616010;54;20445;-76
2022/05/03 18:04:00;;;;;;;10.80;9.50;;;17.00;6.60;;;;;;2615907;54;20851;-74
2022/05/03 18:10:08;;;;;;;11.63;10.43;;;16.90;8.70;;;;;;2615934;54;20436;-76
2022/05/03 18:16:15;;;;;;;11.60;10.20;;;16.70;11.00;;;;;;2615423;54;20436;-75
2022/05/03 18:22:22;;;;;;;13.10;10.00;;;16.40;11.90;;;;;;2615879;54;20418;-77
2022/05/03 18:28:30;;;;;;;11.67;10.10;;;16.30;12.90;;;;;;2616163;54;20410;-75
2022/05/03 18:34:37;;;;;;;10.57;9.43;;;16.20;13.90;;;;;;2616922;54;20429;-75
2022/05/03 18:51:37;;;;;;;12.93;9.43;;;15.70;19.30;;;;;;2611670;54;20449;-76
2022/05/03 19:01:13;;;;;;;11.70;9.00;;;15.40;24.50;;;;;;2611889;47;20440;-77
2022/05/03 19:07:01;;;;;;;12.93;8.90;;;15.20;27.10;;;;;;2612957;47;20427;-76
2022/05/03 19:12:49;;;;;;;10.97;9.80;;;15.10;30.10;;;;;;2613940;46;20421;-75
2022/05/03 19:18:36;;;;;;;13.30;10.33;;;15.10;30.60;;;;;;2611311;47;20254;-76
2022/05/03 19:31:09;;;;;;;11.73;8.13;;;14.90;37.40;;;;;;2613501;39;20763;-76
2022/05/03 19:36:57;;;;;;;8.73;7.77;;;14.70;39.50;;;;;;2614976;39;20792;-76
2022/05/03 19:42:46;;;;;;;13.33;7.37;;;14.60;41.70;;;;;;2613162;39;20635;-77
2022/05/03 19:48:35;;;;;;;8.30;7.50;;;14.60;43.90;;;;;;2614212;54;20457;-76
2022/05/03 19:54:24;;;;;;;8.17;7.30;;;14.30;47.10;;;;;;2614264;47;20427;-75
2022/05/03 20:00:13;;;;;;;7.23;6.63;;;14.30;47.60;;;;;;2614044;54;20419;-74
2022/05/03 20:06:02;;;;;;;10.63;7.53;;;14.20;50.00;;;;;;2612981;54;20456;-75
2022/05/03 20:11:50;;;;;;;10.93;7.50;;;14.10;48.30;;;;;;2612178;47;21302;-76
2022/05/03 20:17:38;;;;;;;9.50;7.47;;;14.10;49.00;;;;;;2614655;39;20831;-75
2022/05/03 20:23:30;;;;;;;9.00;7.03;;;14.00;51.30;;;;;;2615446;54;20440;-74
2022/05/03 20:29:18;;;;;;;11.07;7.20;;;14.00;51.00;;;;;;2615437;54;20423;-75
2022/05/03 20:35:08;;;;;;;8.50;6.27;;;13.80;52.50;;;;;;2614661;54;20250;-74
2022/05/03 20:59:12;;;;;;;13.17;6.07;;;13.40;62.10;;;;;;2613756;54;20583;-75
2022/05/03 21:05:18;;;;;;;12.37;7.17;;;13.30;65.70;;;;;;2613290;54;20707;-75
2022/05/03 21:11:25;;;;;;;13.20;6.00;;;13.10;69.50;;;;;;2614416;54;20936;-75
2022/05/03 21:17:32;;;;;;;12.30;6.63;;;12.90;73.10;;;;;;2613990;54;20252;-78
2022/05/03 21:23:38;;;;;;;6.40;5.80;;;12.80;73.70;;;;;;2613034;54;20407;-74
2022/05/03 21:29:45;;;;;;;6.90;6.20;;;12.90;75.60;;;;;;2614030;54;20423;-77
2022/05/03 21:35:52;;;;;;;6.67;5.73;;;12.70;79.50;;;;;;2616142;54;20742;-77
2022/05/03 21:41:58;;;;;;;6.97;6.30;;;12.70;77.90;;;;;;2612196;54;20225;-75
2022/05/03 21:55:17;;;;;;;9.67;6.00;;;12.40;82.80;;;;;;2613403;54;20515;-75
2022/05/03 22:01:23;;;;;;;11.20;6.13;;;12.20;83.40;;;;;;2613984;39;20577;-76
2022/05/03 22:07:29;;;;;;;12.00;5.87;;;12.20;82.70;;;;;;2614539;54;20696;-75
2022/05/03 22:13:36;;;;;;;8.37;5.80;;;12.00;86.00;;;;;;2615271;54;20150;-75
2022/05/03 22:19:42;;;;;;;10.17;6.50;;;12.10;86.20;;;;;;2613768;54;20427;-75
2022/05/03 22:25:49;;;;;;;8.63;5.70;;;11.90;86.10;;;;;;2615093;54;20167;-75
2022/05/03 22:31:55;;;;;;;7.13;6.30;;;11.70;86.70;;;;;;2615363;54;20275;-75
2022/05/03 22:38:01;;;;;;;16.53;7.17;;;11.70;86.90;;;;;;2614567;54;20285;-78
2022/05/03 22:44:08;;;;;;;7.60;5.83;;;11.80;84.70;;;;;;2615338;54;20174;-75
2022/05/03 22:53:56;;;;;;;7.30;5.60;;;11.50;88.20;;;;;;2613338;54;20988;-74
2022/05/03 22:59:44;;;;;;;9.37;6.03;;;11.50;90.50;;;;;;2613072;39;20499;-75
2022/05/03 23:05:31;;;;;;;12.13;7.03;;;11.40;91.50;;;;;;2613972;47;20174;-75
2022/05/03 23:11:19;;;;;;;10.10;6.50;;;11.30;93.90;;;;;;2613681;47;20403;-74
2022/05/03 23:17:06;;;;;;;12.80;6.53;;;11.20;96.60;;;;;;2614073;54;20155;-75
2022/05/03 23:22:54;;;;;;;13.10;6.30;;;11.20;97.10;;;;;;2613309;54;20430;-76
2022/05/03 23:28:42;;;;;;;8.77;5.80;;;11.10;99.40;;;;;;2615725;47;20167;-75
2022/05/03 23:41:02;;;;;;;12.77;9.50;;;10.90;99.90;;;;;;2613466;54;20403;-76
2022/05/03 23:44:05;;;;;;;9.17;5.93;;;10.90;99.90;;;;;;2612858;47;20451;-75
2022/05/03 23:46:32;;;;;;;8.37;6.63;;;10.90;99.90;;;;;;2613409;54;20555;-74
2022/05/03 23:52:19;;;;;;;10.60;8.70;;;10.90;99.90;;;;;;2613964;54;20407;-74
2022/05/03 23:58:07;;;;;;;22.27;7.90;;;10.80;99.90;;;;;;2613402;54;20162;-74
